createdAt,value
2019-05-10T00:00:29.275Z,89.48
2019-05-10T00:01:29.285Z,90.06
2019-05-10T00:03:22.200Z,89.87
2019-05-10T00:04:22.204Z,90.16
2019-05-10T00:06:15.117Z,90.25
2019-05-10T00:07:15.127Z,90.25
2019-05-10T00:09:08.045Z,90.34
2019-05-10T00:10:08.051Z,90.53
2019-05-10T00:12:00.965Z,90.44
2019-05-10T00:13:00.969Z,90.63
2019-05-10T00:14:53.892Z,90.68
2019-05-10T00:15:53.894Z,90.30
2019-05-10T00:17:46.812Z,91.02
2019-05-10T00:18:46.816Z,90.92
2019-05-10T00:20:39.730Z,91.02
2019-05-10T00:21:39.744Z,90.88
2019-05-10T00:23:32.652Z,90.59
2019-05-10T00:24:32.656Z,90.73
2019-05-10T00:26:25.566Z,90.88
2019-05-10T00:27:25.579Z,90.49
2019-05-10T00:29:18.493Z,90.20
2019-05-10T00:30:18.499Z,90.59
2019-05-10T00:32:11.415Z,90.88
2019-05-10T00:33:11.427Z,90.97
2019-05-10T00:35:04.337Z,90.78
2019-05-10T00:36:04.344Z,90.97
2019-05-10T00:37:57.269Z,90.68
2019-05-10T00:38:57.263Z,91.06
2019-05-10T00:40:50.171Z,91.54
2019-05-10T00:41:50.184Z,91.06
2019-05-10T00:43:43.101Z,91.74
2019-05-10T00:44:43.106Z,91.93
2019-05-10T00:46:36.014Z,92.02
2019-05-10T00:47:36.023Z,91.45
2019-05-10T00:49:28.938Z,91.83
2019-05-10T00:50:28.945Z,91.83
2019-05-10T00:52:21.857Z,92.88
2019-05-10T00:53:21.860Z,92.59
2019-05-10T00:55:19.077Z,92.30
2019-05-10T00:56:14.783Z,92.69
2019-05-10T00:58:07.696Z,93.07
2019-05-10T00:59:07.703Z,93.26
2019-05-10T01:01:00.806Z,92.21
2019-05-10T01:02:00.622Z,92.30
2019-05-10T01:03:53.533Z,92.30
2019-05-10T01:04:53.541Z,92.30
2019-05-10T01:06:46.447Z,93.45
2019-05-10T01:07:46.462Z,93.07
2019-05-10T01:09:39.374Z,93.45
2019-05-10T01:10:39.381Z,92.55
2019-05-10T01:12:32.294Z,92.50
2019-05-10T01:13:32.299Z,92.50
2019-05-10T01:15:25.210Z,92.69
2019-05-10T01:16:25.222Z,92.45
2019-05-10T01:18:18.142Z,91.97
2019-05-10T01:19:18.141Z,91.97
2019-05-10T01:21:11.097Z,92.07
2019-05-10T01:22:11.115Z,92.07
2019-05-10T01:24:04.021Z,92.36
2019-05-10T01:25:04.028Z,92.45
2019-05-10T01:26:56.935Z,92.07
2019-05-10T01:27:56.946Z,92.07
2019-05-10T01:29:49.860Z,92.41
2019-05-10T01:30:49.865Z,92.97
2019-05-10T01:32:42.781Z,92.50
2019-05-10T01:33:42.785Z,92.88
2019-05-10T01:35:35.692Z,92.60
2019-05-10T01:36:35.703Z,93.46
2019-05-10T01:38:28.616Z,93.36
2019-05-10T01:39:28.618Z,93.26
2019-05-10T01:41:21.526Z,93.36
2019-05-10T01:42:21.537Z,93.36
2019-05-10T01:44:14.452Z,94.12
2019-05-10T01:45:14.455Z,94.12
2019-05-10T01:47:07.362Z,94.12
2019-05-10T01:48:07.375Z,94.12
2019-05-10T01:50:00.286Z,94.31
2019-05-10T01:51:00.291Z,93.88
2019-05-10T01:52:53.203Z,93.88
2019-05-10T01:53:53.208Z,94.17
2019-05-10T01:55:52.314Z,94.27
2019-05-10T01:56:46.125Z,94.27
2019-05-10T01:58:39.036Z,94.17
2019-05-10T01:59:39.041Z,94.17
2019-05-10T02:01:31.957Z,94.17
2019-05-10T02:02:31.960Z,93.98
2019-05-10T02:04:25.377Z,93.79
2019-05-10T02:05:25.370Z,93.88
2019-05-10T02:07:18.286Z,93.88
2019-05-10T02:08:18.286Z,94.07
2019-05-10T02:10:11.198Z,94.07
2019-05-10T02:11:11.201Z,94.07
2019-05-10T02:13:04.113Z,93.98
2019-05-10T02:14:04.116Z,94.17
2019-05-10T02:15:57.024Z,93.31
2019-05-10T02:16:57.033Z,93.41
2019-05-10T02:18:50.092Z,93.12
2019-05-10T02:19:50.101Z,93.22
2019-05-10T02:21:43.003Z,93.60
2019-05-10T02:22:43.015Z,93.22
2019-05-10T02:24:35.929Z,92.93
2019-05-10T02:25:35.936Z,92.83
2019-05-10T02:27:28.839Z,92.98
2019-05-10T02:28:28.851Z,93.12
2019-05-10T02:30:21.759Z,92.88
2019-05-10T02:31:22.160Z,92.88
2019-05-10T02:33:14.675Z,93.36
2019-05-10T02:34:14.680Z,93.27
2019-05-10T02:36:07.586Z,93.36
2019-05-10T02:37:07.599Z,93.17
2019-05-10T02:39:00.509Z,94.03
2019-05-10T02:40:00.513Z,94.12
2019-05-10T02:41:53.419Z,94.22
2019-05-10T02:42:53.431Z,94.51
2019-05-10T02:44:46.344Z,94.32
2019-05-10T02:45:46.345Z,94.03
2019-05-10T02:47:39.261Z,93.74
2019-05-10T02:48:39.267Z,94.22
2019-05-10T02:50:32.173Z,94.03
2019-05-10T02:51:32.177Z,93.93
2019-05-10T02:53:25.090Z,93.36
2019-05-10T02:54:25.093Z,93.08
2019-05-10T02:56:30.009Z,92.98
2019-05-10T02:57:18.006Z,93.55
2019-05-10T02:59:10.929Z,93.36
2019-05-10T03:00:10.924Z,93.55
2019-05-10T03:02:03.829Z,94.32
2019-05-10T03:03:03.841Z,93.84
2019-05-10T03:04:56.768Z,94.27
2019-05-10T03:05:56.757Z,93.93
2019-05-10T03:07:49.669Z,93.60
2019-05-10T03:08:49.683Z,93.12
2019-05-10T03:10:42.583Z,93.02
2019-05-10T03:11:42.595Z,92.83
2019-05-10T03:13:35.499Z,92.55
2019-05-10T03:14:35.504Z,92.36
2019-05-10T03:16:28.412Z,93.02
2019-05-10T03:17:28.587Z,92.36
2019-05-10T03:19:21.335Z,92.65
2019-05-10T03:20:21.341Z,92.65
2019-05-10T03:22:14.245Z,93.02
2019-05-10T03:23:14.254Z,92.36
2019-05-10T03:25:07.164Z,92.55
2019-05-10T03:26:07.169Z,91.98
2019-05-10T03:28:00.079Z,92.26
2019-05-10T03:29:00.090Z,92.17
2019-05-10T03:30:53.003Z,92.17
2019-05-10T03:31:53.012Z,91.78
2019-05-10T03:33:54.286Z,91.88
2019-05-10T03:34:45.967Z,91.78
2019-05-10T03:36:38.857Z,91.88
2019-05-10T03:37:38.868Z,91.69
2019-05-10T03:39:31.782Z,91.98
2019-05-10T03:40:31.774Z,91.98
2019-05-10T03:42:24.679Z,92.26
2019-05-10T03:43:24.691Z,92.93
2019-05-10T03:45:17.610Z,93.41
2019-05-10T03:46:17.607Z,92.93
2019-05-10T03:48:10.517Z,92.93
2019-05-10T03:49:10.528Z,92.17
2019-05-10T03:51:03.440Z,92.93
2019-05-10T03:52:03.447Z,92.93
2019-05-10T03:53:56.353Z,93.31
2019-05-10T03:54:56.369Z,93.02
2019-05-10T03:57:09.155Z,92.93
2019-05-10T03:57:50.179Z,93.41
2019-05-10T03:59:43.114Z,93.60
2019-05-10T04:00:43.097Z,94.07
2019-05-10T04:02:36.004Z,94.17
2019-05-10T04:03:36.014Z,94.17
2019-05-10T04:05:28.925Z,94.65
2019-05-10T04:06:28.933Z,94.36
2019-05-10T04:08:21.852Z,95.03
2019-05-10T04:09:21.852Z,94.93
2019-05-10T04:11:14.766Z,94.93
2019-05-10T04:12:14.764Z,95.03
2019-05-10T04:14:07.673Z,95.32
2019-05-10T04:15:07.698Z,95.46
2019-05-10T04:17:00.596Z,95.12
2019-05-10T04:18:00.597Z,95.12
2019-05-10T04:19:54.000Z,95.56
2019-05-10T04:20:54.010Z,95.17
2019-05-10T04:22:46.919Z,95.46
2019-05-10T04:23:46.939Z,95.56
2019-05-10T04:25:39.847Z,95.36
2019-05-10T04:26:39.854Z,95.36
2019-05-10T04:28:32.807Z,95.27
2019-05-10T04:29:32.772Z,95.56
2019-05-10T04:31:25.685Z,95.27
2019-05-10T04:32:25.690Z,95.17
2019-05-10T04:34:18.595Z,94.98
2019-05-10T04:35:18.608Z,95.36
2019-05-10T04:37:11.522Z,95.17
2019-05-10T04:38:11.525Z,95.46
2019-05-10T04:40:04.434Z,95.36
2019-05-10T04:41:04.445Z,95.56
2019-05-10T04:42:57.364Z,95.08
2019-05-10T04:43:57.366Z,95.08
2019-05-10T04:45:50.277Z,95.08
2019-05-10T04:46:50.284Z,95.27
2019-05-10T04:48:43.196Z,95.17
2019-05-10T04:49:43.204Z,94.98
2019-05-10T04:51:36.115Z,95.36
2019-05-10T04:52:36.121Z,95.08
2019-05-10T04:54:29.028Z,94.98
2019-05-10T04:55:29.039Z,95.17
2019-05-10T04:57:21.953Z,95.65
2019-05-10T04:58:21.958Z,95.36
2019-05-10T05:00:14.866Z,95.27
2019-05-10T05:01:14.878Z,94.89
2019-05-10T05:03:07.789Z,95.46
2019-05-10T05:04:07.799Z,95.17
2019-05-10T05:06:00.702Z,95.56
2019-05-10T05:07:00.714Z,95.27
2019-05-10T05:08:53.644Z,96.03
2019-05-10T05:09:53.629Z,95.56
2019-05-10T05:11:46.541Z,96.22
2019-05-10T05:12:46.547Z,96.03
2019-05-10T05:14:39.451Z,95.94
2019-05-10T05:15:39.463Z,96.42
2019-05-10T05:17:32.426Z,95.94
2019-05-10T05:18:32.386Z,96.03
2019-05-10T05:20:25.293Z,96.42
2019-05-10T05:21:25.300Z,96.22
2019-05-10T05:23:18.216Z,96.22
2019-05-10T05:24:22.918Z,96.80
2019-05-10T05:26:11.129Z,96.37
2019-05-10T05:27:11.138Z,96.61
2019-05-10T05:29:04.051Z,96.51
2019-05-10T05:30:04.060Z,96.80
2019-05-10T05:32:01.398Z,96.80
2019-05-10T05:32:57.171Z,97.18
2019-05-10T05:34:49.879Z,96.70
2019-05-10T05:35:49.907Z,96.80
2019-05-10T05:37:42.815Z,96.61
2019-05-10T05:38:47.271Z,96.70
2019-05-10T05:40:35.716Z,96.70
2019-05-10T05:41:47.613Z,96.89
2019-05-10T05:43:28.638Z,95.75
2019-05-10T05:44:28.644Z,96.22
2019-05-10T05:46:21.550Z,95.94
2019-05-10T05:47:21.561Z,95.17
2019-05-10T05:49:14.473Z,95.08
2019-05-10T05:50:14.483Z,95.27
2019-05-10T05:52:07.388Z,94.98
2019-05-10T05:53:07.395Z,95.17
2019-05-10T05:55:00.304Z,95.56
2019-05-10T05:56:03.612Z,95.84
2019-05-10T05:57:53.235Z,95.65
2019-05-10T05:58:53.234Z,96.13
2019-05-10T06:00:46.804Z,96.80
2019-05-10T06:01:46.153Z,96.89
2019-05-10T06:03:39.073Z,97.08
2019-05-10T06:04:41.000Z,97.08
2019-05-10T06:06:31.982Z,96.89
2019-05-10T06:07:37.953Z,97.66
2019-05-10T06:09:24.909Z,97.27
2019-05-10T06:10:24.914Z,97.27
2019-05-10T06:12:17.831Z,97.08
2019-05-10T06:13:23.467Z,97.27
2019-05-10T06:15:10.744Z,97.08
2019-05-10T06:16:12.708Z,97.37
2019-05-10T06:18:09.342Z,97.27
2019-05-10T06:19:03.677Z,97.27
2019-05-10T06:20:56.584Z,97.27
2019-05-10T06:21:58.030Z,96.80
2019-05-10T06:23:49.511Z,96.89
2019-05-10T06:24:52.392Z,97.08
2019-05-10T06:26:42.427Z,96.89
2019-05-10T06:27:43.241Z,97.18
2019-05-10T06:29:35.357Z,96.98
2019-05-10T06:30:35.362Z,97.37
2019-05-10T06:32:28.277Z,97.32
2019-05-10T06:33:28.780Z,97.66
2019-05-10T06:35:21.186Z,97.85
2019-05-10T06:36:21.198Z,96.80
2019-05-10T06:38:14.108Z,97.80
2019-05-10T06:39:14.120Z,98.18
2019-05-10T06:41:10.286Z,99.23
2019-05-10T06:42:07.032Z,99.52
2019-05-10T06:44:00.095Z,99.80
2019-05-10T06:45:05.039Z,99.80
2019-05-10T06:46:53.029Z,99.90
2019-05-10T06:47:53.559Z,99.99
2019-05-10T06:49:50.627Z,99.99
2019-05-10T06:50:45.936Z,99.99
2019-05-10T06:52:38.861Z,99.71
2019-05-10T06:53:42.264Z,98.94
2019-05-10T06:55:31.763Z,99.99
2019-05-10T06:56:31.776Z,99.99
2019-05-10T06:58:24.688Z,99.99
2019-05-10T06:59:26.282Z,99.99
2019-05-10T07:01:17.603Z,99.66
2019-05-10T07:02:20.106Z,99.47
2019-05-10T07:04:10.531Z,97.85
2019-05-10T07:05:10.532Z,97.94
2019-05-10T07:07:10.372Z,97.94
2019-05-10T07:08:13.184Z,97.66
2019-05-10T07:10:08.341Z,98.42
2019-05-10T07:10:56.370Z,98.61
2019-05-10T07:12:49.315Z,96.98
2019-05-10T07:13:52.788Z,97.66
2019-05-10T07:15:44.662Z,97.85
2019-05-10T07:16:42.212Z,97.08
2019-05-10T07:18:35.127Z,96.32
2019-05-10T07:19:42.117Z,96.61
2019-05-10T07:21:28.041Z,95.98
2019-05-10T07:22:29.045Z,96.42
2019-05-10T07:24:25.356Z,95.32
2019-05-10T07:25:20.973Z,94.46
2019-05-10T07:27:13.883Z,94.17
2019-05-10T07:28:15.682Z,94.65
2019-05-10T07:30:06.813Z,94.55
2019-05-10T07:31:06.819Z,94.46
2019-05-10T07:33:01.828Z,93.26
2019-05-10T07:33:59.739Z,91.25
2019-05-10T07:35:52.652Z,91.35
2019-05-10T07:36:52.660Z,90.39
2019-05-10T07:38:45.579Z,90.39
2019-05-10T07:39:45.584Z,90.20
2019-05-10T07:41:38.511Z,89.44
2019-05-10T07:42:40.001Z,89.63
2019-05-10T07:44:31.423Z,90.06
2019-05-10T07:45:31.430Z,88.53
2019-05-10T07:47:30.250Z,88.34
2019-05-10T07:48:24.355Z,87.24
2019-05-10T07:50:17.277Z,87.62
2019-05-10T07:51:17.279Z,88.15
2019-05-10T07:53:10.198Z,87.24
2019-05-10T07:54:10.205Z,85.90
2019-05-10T07:56:06.075Z,85.90
2019-05-10T07:57:03.128Z,85.71
2019-05-10T07:58:56.043Z,85.71
2019-05-10T07:59:57.509Z,85.81
2019-05-10T08:01:49.348Z,86.67
2019-05-10T08:02:51.200Z,87.24
2019-05-10T08:04:41.890Z,85.71
2019-05-10T08:05:46.315Z,86.29
2019-05-10T08:07:34.809Z,86.29
2019-05-10T08:08:34.821Z,86.76
2019-05-10T08:10:28.925Z,86.47
2019-05-10T08:11:28.534Z,86.52
2019-05-10T08:13:24.979Z,85.75
2019-05-10T08:14:20.671Z,84.61
2019-05-10T08:16:19.711Z,83.99
2019-05-10T08:17:13.596Z,83.99
2019-05-10T08:19:06.511Z,84.38
2019-05-10T08:20:09.009Z,83.80
2019-05-10T08:22:01.818Z,83.99
2019-05-10T08:22:59.438Z,84.62
2019-05-10T08:24:56.027Z,84.91
2019-05-10T08:25:53.353Z,85.10
2019-05-10T08:27:50.567Z,84.52
2019-05-10T08:28:45.286Z,85.00
2019-05-10T08:30:42.498Z,84.33
2019-05-10T08:31:50.605Z,83.86
2019-05-10T08:33:32.803Z,83.86
2019-05-10T08:34:35.698Z,83.38
2019-05-10T08:36:24.057Z,82.81
2019-05-10T08:37:30.913Z,82.46
2019-05-10T08:39:16.974Z,83.61
2019-05-10T08:40:19.657Z,83.04
2019-05-10T08:42:29.415Z,82.41
2019-05-10T08:43:13.985Z,79.64
2019-05-10T08:45:05.333Z,79.64
2019-05-10T08:46:02.837Z,79.87
2019-05-10T08:48:00.862Z,78.14
2019-05-10T08:48:55.760Z,76.90
2019-05-10T08:50:55.942Z,78.24
2019-05-10T08:51:49.475Z,79.20
2019-05-10T08:53:42.241Z,74.99
2019-05-10T08:54:42.292Z,74.70
2019-05-10T08:56:34.539Z,74.90
2019-05-10T08:57:43.309Z,74.74
2019-05-10T08:59:30.691Z,74.74
2019-05-10T09:00:41.762Z,74.16
2019-05-10T09:02:28.932Z,75.02
2019-05-10T09:03:22.575Z,74.55
2019-05-10T09:05:13.323Z,72.63
2019-05-10T09:06:16.695Z,74.45
2019-05-10T09:08:13.623Z,74.65
2019-05-10T09:09:08.278Z,74.16
2019-05-10T09:10:59.176Z,74.22
2019-05-10T09:12:04.240Z,74.41
2019-05-10T09:13:53.832Z,74.19
2019-05-10T09:14:57.580Z,73.99
2019-05-10T09:16:56.406Z,74.95
2019-05-10T09:17:45.033Z,74.19
2019-05-10T09:19:43.463Z,74.76
2019-05-10T09:20:37.959Z,74.73
2019-05-10T09:22:33.770Z,74.63
2019-05-10T09:23:32.631Z,74.73
2019-05-10T09:25:29.207Z,75.16
2019-05-10T09:26:23.806Z,75.45
2019-05-10T09:28:17.202Z,75.64
2019-05-10T09:29:16.731Z,76.79
2019-05-10T09:31:18.833Z,77.36
2019-05-10T09:32:09.654Z,78.13
2019-05-10T09:34:02.674Z,77.45
2019-05-10T09:35:07.685Z,77.69
2019-05-10T09:36:55.495Z,78.16
2019-05-10T09:37:58.581Z,78.07
2019-05-10T09:39:54.943Z,76.96
2019-05-10T09:40:52.987Z,76.48
2019-05-10T09:42:43.482Z,76.86
2019-05-10T09:43:48.472Z,75.91
2019-05-10T09:45:34.264Z,76.39
2019-05-10T09:46:34.274Z,76.39
2019-05-10T09:48:27.185Z,76.29
2019-05-10T09:49:27.200Z,76.14
2019-05-10T09:51:25.562Z,76.04
2019-05-10T09:52:20.128Z,75.09
2019-05-10T09:54:13.069Z,74.99
2019-05-10T09:55:14.858Z,74.51
2019-05-10T09:57:08.206Z,75.71
2019-05-10T09:58:08.427Z,76.10
2019-05-10T09:59:58.904Z,77.15
2019-05-10T10:01:13.858Z,76.10
2019-05-10T10:02:56.359Z,75.24
2019-05-10T10:03:51.833Z,74.48
2019-05-10T10:05:44.752Z,74.82
2019-05-10T10:06:48.076Z,74.91
2019-05-10T10:08:38.390Z,74.34
2019-05-10T10:09:44.536Z,74.48
2019-05-10T10:11:30.610Z,74.28
2019-05-10T10:12:30.612Z,74.19
2019-05-10T10:14:23.527Z,72.75
2019-05-10T10:15:32.133Z,73.43
2019-05-10T10:17:18.384Z,72.75
2019-05-10T10:18:21.217Z,73.04
2019-05-10T10:20:09.385Z,72.37
2019-05-10T10:21:10.454Z,72.94
2019-05-10T10:23:02.313Z,73.04
2019-05-10T10:24:12.572Z,72.18
2019-05-10T10:25:57.785Z,72.12
2019-05-10T10:26:56.019Z,71.39
2019-05-10T10:28:49.582Z,70.85
2019-05-10T10:29:48.184Z,69.60
2019-05-10T10:31:51.228Z,68.65
2019-05-10T10:32:44.417Z,68.65
2019-05-10T10:34:38.685Z,67.72
2019-05-10T10:35:34.043Z,66.48
2019-05-10T10:37:29.111Z,65.71
2019-05-10T10:38:30.584Z,65.33
2019-05-10T10:40:19.907Z,66.00
2019-05-10T10:41:25.917Z,65.91
2019-05-10T10:43:12.828Z,65.05
2019-05-10T10:44:12.844Z,64.47
2019-05-10T10:46:11.842Z,64.12
2019-05-10T10:47:08.056Z,63.64
2019-05-10T10:48:58.690Z,62.68
2019-05-10T10:50:03.057Z,63.06
2019-05-10T10:51:51.629Z,62.30
2019-05-10T10:52:51.638Z,62.07
2019-05-10T10:54:44.555Z,63.45
2019-05-10T10:55:46.120Z,63.16
2019-05-10T10:57:37.540Z,62.20
2019-05-10T10:58:37.500Z,62.77
2019-05-10T11:00:30.434Z,61.53
2019-05-10T11:01:46.150Z,61.82
2019-05-10T11:03:23.868Z,62.59
2019-05-10T11:04:23.364Z,60.96
2019-05-10T11:06:16.288Z,62.39
2019-05-10T11:07:16.300Z,62.59
2019-05-10T11:09:09.385Z,62.81
2019-05-10T11:10:18.041Z,61.75
2019-05-10T11:12:02.326Z,60.60
2019-05-10T11:13:10.678Z,60.70
2019-05-10T11:14:55.250Z,59.90
2019-05-10T11:15:58.829Z,60.19
2019-05-10T11:17:50.474Z,60.47
2019-05-10T11:18:48.200Z,60.86
2019-05-10T11:20:49.048Z,60.28
2019-05-10T11:21:41.597Z,59.90
2019-05-10T11:23:38.673Z,60.25
2019-05-10T11:24:34.067Z,60.44
2019-05-10T11:26:32.901Z,60.35
2019-05-10T11:27:26.994Z,60.54
2019-05-10T11:29:27.669Z,61.50
2019-05-10T11:30:21.483Z,62.55
2019-05-10T11:32:16.710Z,62.07
2019-05-10T11:33:26.580Z,62.84
2019-05-10T11:35:05.817Z,63.06
2019-05-10T11:36:08.629Z,63.35
2019-05-10T11:38:01.050Z,62.42
2019-05-10T11:38:58.920Z,60.41
2019-05-10T11:40:51.651Z,59.93
2019-05-10T11:42:00.544Z,59.45
2019-05-10T11:43:44.577Z,59.06
2019-05-10T11:44:49.965Z,59.06
2019-05-10T11:46:37.520Z,59.36
2019-05-10T11:47:37.522Z,60.41
2019-05-10T11:49:30.854Z,59.55
2019-05-10T11:52:23.379Z,59.74
2019-05-10T11:53:24.080Z,59.83
2019-05-10T11:55:16.303Z,59.26
2019-05-10T11:56:16.319Z,57.72
2019-05-10T11:58:12.973Z,58.94
2019-05-10T11:59:05.179Z,58.11
2019-05-10T11:59:15.870Z,59.36
2019-05-10T12:01:08.852Z,58.97
2019-05-10T12:02:02.882Z,59.16
2019-05-10T12:03:55.094Z,56.19
2019-05-10T12:04:55.109Z,57.24
2019-05-10T12:06:50.244Z,59.77
2019-05-10T12:07:48.039Z,59.58
2019-05-10T12:09:42.505Z,60.66
2019-05-10T12:10:43.068Z,61.05
2019-05-10T12:12:50.315Z,57.90
2019-05-10T12:13:33.986Z,58.87
2019-05-10T12:15:26.906Z,55.89
2019-05-10T12:16:26.920Z,55.89
2019-05-10T12:18:26.576Z,56.95
2019-05-10T12:19:21.345Z,56.08
2019-05-10T12:21:12.782Z,56.56
2019-05-10T12:22:15.976Z,55.10
2019-05-10T12:24:24.382Z,55.77
2019-05-10T12:25:34.874Z,56.73
2019-05-10T12:27:22.025Z,57.68
2019-05-10T12:28:01.141Z,57.85
2019-05-10T12:29:59.400Z,58.33
2019-05-10T12:30:51.608Z,58.71
2019-05-10T12:32:55.706Z,59.38
2019-05-10T12:33:45.406Z,59.38
2019-05-10T12:35:41.886Z,59.26
2019-05-10T12:36:37.475Z,59.33
2019-05-10T12:38:31.789Z,59.80
2019-05-10T12:39:30.977Z,60.57
2019-05-10T12:41:23.529Z,62.96
2019-05-10T12:42:23.354Z,63.64
2019-05-10T12:44:16.257Z,63.83
2019-05-10T12:45:16.273Z,63.54
2019-05-10T12:47:11.352Z,63.54
2019-05-10T12:48:09.211Z,63.83
2019-05-10T12:50:03.446Z,64.31
2019-05-10T12:51:08.157Z,63.83
2019-05-10T12:53:03.878Z,64.25
2019-05-10T12:53:55.066Z,64.43
2019-05-10T12:55:47.985Z,64.15
2019-05-10T12:56:47.999Z,63.32
2019-05-10T12:58:40.920Z,63.19
2019-05-10T12:59:40.930Z,63.67
2019-05-10T13:01:33.850Z,63.38
2019-05-10T13:02:33.859Z,64.05
2019-05-10T13:04:39.636Z,63.38
2019-05-10T13:05:32.059Z,62.90
2019-05-10T13:07:19.717Z,62.23
2019-05-10T13:08:19.723Z,61.27
2019-05-10T13:10:12.665Z,61.85
2019-05-10T13:11:12.655Z,62.59
2019-05-10T13:13:05.577Z,63.09
2019-05-10T13:14:07.470Z,62.62
2019-05-10T13:15:58.501Z,62.52
2019-05-10T13:16:58.517Z,60.31
2019-05-10T13:18:52.715Z,59.29
2019-05-10T13:19:52.742Z,59.19
2019-05-10T13:21:44.395Z,58.14
2019-05-10T13:22:44.381Z,58.07
2019-05-10T13:24:37.298Z,57.50
2019-05-10T13:25:37.314Z,56.24
2019-05-10T13:27:30.235Z,56.70
2019-05-10T13:28:30.252Z,56.79
2019-05-10T13:30:28.240Z,57.95
2019-05-10T13:31:23.177Z,58.14
2019-05-10T13:33:28.564Z,57.75
2019-05-10T13:34:16.110Z,58.52
2019-05-10T13:36:09.026Z,58.91
2019-05-10T13:37:13.728Z,59.70
2019-05-10T13:39:01.965Z,57.97
2019-05-10T13:40:05.276Z,58.07
2019-05-10T13:41:57.212Z,57.01
2019-05-10T13:42:54.906Z,55.89
2019-05-10T13:44:47.824Z,56.15
2019-05-10T13:45:47.838Z,56.56
2019-05-10T13:47:40.767Z,56.76
2019-05-10T13:48:40.773Z,56.95
2019-05-10T13:50:33.694Z,54.74
2019-05-10T13:51:33.708Z,53.58
2019-05-10T13:53:26.633Z,55.57
2019-05-10T13:54:31.272Z,55.19
2019-05-10T13:56:19.563Z,56.27
2019-05-10T13:57:19.580Z,57.23
2019-05-10T13:59:17.940Z,56.27
2019-05-10T14:00:12.511Z,56.76
2019-05-10T14:02:05.438Z,54.57
2019-05-10T14:03:11.550Z,54.28
2019-05-10T14:04:58.367Z,53.42
2019-05-10T14:05:58.378Z,53.03
2019-05-10T14:07:52.984Z,54.00
2019-05-10T14:08:51.335Z,53.13
2019-05-10T14:10:44.280Z,54.19
2019-05-10T14:11:46.976Z,53.30
2019-05-10T14:13:41.536Z,53.39
2019-05-10T14:14:37.270Z,54.16
2019-05-10T14:16:30.228Z,53.01
2019-05-10T14:17:30.303Z,52.60
2019-05-10T14:19:23.400Z,53.85
2019-05-10T14:20:25.373Z,54.71
2019-05-10T14:22:16.089Z,56.63
2019-05-10T14:23:17.877Z,54.61
2019-05-10T14:25:09.010Z,56.85
2019-05-10T14:26:15.448Z,57.52
2019-05-10T14:28:02.102Z,54.93
2019-05-10T14:29:02.119Z,55.73
2019-05-10T14:30:57.426Z,54.57
2019-05-10T14:31:55.048Z,53.80
2019-05-10T14:34:14.206Z,52.97
2019-05-10T14:34:47.996Z,52.97
2019-05-10T14:36:43.379Z,53.25
2019-05-10T14:37:40.929Z,53.92
2019-05-10T14:39:33.888Z,52.20
2019-05-10T14:40:33.864Z,52.29
2019-05-10T14:42:30.909Z,51.40
2019-05-10T14:43:26.802Z,51.69
2019-05-10T14:45:20.718Z,52.26
2019-05-10T14:46:20.736Z,53.01
2019-05-10T14:48:13.668Z,53.97
2019-05-10T14:49:13.671Z,53.20
2019-05-10T14:51:11.184Z,53.36
2019-05-10T14:52:06.601Z,53.17
2019-05-10T14:54:06.443Z,54.71
2019-05-10T14:54:59.532Z,54.71
2019-05-10T14:56:54.008Z,53.27
2019-05-10T14:57:52.467Z,52.98
2019-05-10T14:59:45.390Z,54.42
2019-05-10T15:00:45.399Z,56.66
2019-05-10T15:02:38.323Z,53.78
2019-05-10T15:03:45.365Z,53.20
2019-05-10T15:05:31.259Z,53.20
2019-05-10T15:06:37.049Z,52.14
2019-05-10T15:08:24.195Z,52.53
2019-05-10T15:09:24.345Z,53.56
2019-05-10T15:11:17.117Z,54.71
2019-05-10T15:12:22.312Z,54.52
2019-05-10T15:14:10.082Z,54.83
2019-05-10T15:15:10.066Z,54.42
2019-05-10T15:17:02.991Z,53.97
2019-05-10T15:18:03.645Z,53.68
2019-05-10T15:19:59.626Z,53.01
2019-05-10T15:20:55.933Z,52.91
2019-05-10T15:22:48.863Z,53.01
2019-05-10T15:23:48.862Z,53.58
2019-05-10T15:25:55.725Z,52.81
2019-05-10T15:26:43.799Z,53.58
2019-05-10T15:28:40.330Z,53.49
2019-05-10T15:29:34.734Z,52.72
2019-05-10T15:31:29.288Z,51.76
2019-05-10T15:32:27.665Z,53.39
2019-05-10T15:34:20.589Z,53.58
2019-05-10T15:35:20.595Z,53.78
2019-05-10T15:37:17.377Z,53.78
2019-05-10T15:38:13.526Z,53.87
2019-05-10T15:40:08.017Z,52.91
2019-05-10T15:41:06.459Z,52.53
2019-05-10T15:43:02.879Z,52.81
2019-05-10T15:43:59.398Z,52.91
2019-05-10T15:45:54.688Z,52.91
2019-05-10T15:46:52.329Z,52.62
2019-05-10T15:48:45.250Z,52.91
2019-05-10T15:49:45.261Z,52.89
2019-05-10T15:51:38.181Z,53.27
2019-05-10T15:54:31.122Z,52.89
2019-05-10T15:55:31.128Z,52.89
2019-05-10T15:57:24.087Z,53.27
2019-05-10T15:58:24.067Z,54.13
2019-05-10T15:59:23.831Z,52.79
2019-05-10T16:00:16.985Z,53.56
2019-05-10T16:01:26.212Z,53.46
2019-05-10T16:03:10.529Z,53.17
2019-05-10T16:04:09.934Z,53.85
2019-05-10T16:06:02.862Z,54.52
2019-05-10T16:07:02.869Z,53.94
2019-05-10T16:08:55.831Z,53.27
2019-05-10T16:09:56.173Z,52.98
2019-05-10T16:11:48.757Z,53.85
2019-05-10T16:12:48.772Z,53.66
2019-05-10T16:14:45.090Z,54.61
2019-05-10T16:15:41.710Z,54.90
2019-05-10T16:17:34.627Z,53.66
2019-05-10T16:18:40.100Z,53.85
2019-05-10T16:20:31.764Z,53.75
2019-05-10T16:21:28.077Z,54.04
2019-05-10T16:23:22.581Z,54.61
2019-05-10T16:24:26.126Z,53.75
2019-05-10T16:26:17.576Z,54.61
2019-05-10T16:27:16.007Z,55.47
2019-05-10T16:29:08.954Z,53.85
2019-05-10T16:30:17.176Z,53.75
2019-05-10T16:32:02.377Z,54.61
2019-05-10T16:33:02.391Z,54.58
2019-05-10T16:34:55.809Z,54.80
2019-05-10T16:35:55.820Z,54.80
2019-05-10T16:37:48.740Z,53.75
2019-05-10T16:38:48.753Z,54.04
2019-05-10T16:40:44.506Z,54.33
2019-05-10T16:41:41.687Z,54.71
2019-05-10T16:43:34.611Z,54.71
2019-05-10T16:44:34.631Z,54.78
2019-05-10T16:46:27.614Z,54.30
2019-05-10T16:47:27.570Z,54.49
2019-05-10T16:49:20.488Z,54.68
2019-05-10T16:50:20.630Z,54.30
2019-05-10T16:52:13.414Z,54.88
2019-05-10T16:53:13.424Z,54.49
2019-05-10T16:55:09.452Z,54.49
2019-05-10T16:56:06.353Z,55.45
2019-05-10T16:57:59.773Z,55.38
2019-05-10T16:58:59.788Z,55.67
2019-05-10T17:00:52.709Z,56.92
2019-05-10T17:02:03.180Z,56.05
2019-05-10T17:03:45.641Z,56.53
2019-05-10T17:04:45.652Z,56.53
2019-05-10T17:06:40.500Z,56.79
2019-05-10T17:07:38.580Z,57.59
2019-05-10T17:09:31.501Z,57.21
2019-05-10T17:10:32.827Z,57.85
2019-05-10T17:12:27.497Z,57.28
2019-05-10T17:13:24.448Z,57.85
2019-05-10T17:15:17.368Z,57.75
2019-05-10T17:16:18.891Z,58.04
2019-05-10T17:18:17.550Z,58.81
2019-05-10T17:19:10.801Z,59.09
2019-05-10T17:21:03.723Z,59.96
2019-05-10T17:22:03.733Z,59.26
2019-05-10T17:23:56.645Z,59.26
2019-05-10T17:25:02.561Z,59.36
2019-05-10T17:26:49.579Z,58.87
2019-05-10T17:27:50.625Z,59.26
2019-05-10T17:29:44.484Z,59.55
2019-05-10T17:30:44.856Z,59.36
2019-05-10T17:32:35.442Z,59.52
2019-05-10T17:33:36.757Z,60.09
2019-05-10T17:35:28.369Z,61.91
2019-05-10T17:36:28.378Z,63.73
2019-05-10T17:38:21.292Z,66.42
2019-05-10T17:39:26.190Z,69.64
2019-05-10T17:41:14.227Z,71.17
2019-05-10T17:42:14.233Z,71.84
2019-05-10T17:44:07.148Z,72.86
2019-05-10T17:45:07.162Z,73.54
2019-05-10T17:47:00.575Z,74.77
2019-05-10T17:48:03.515Z,74.07
2019-05-10T17:49:53.516Z,74.65
2019-05-10T17:50:53.511Z,74.65
2019-05-10T17:52:46.424Z,75.60
2019-05-10T17:53:46.434Z,76.08
2019-05-10T17:55:39.352Z,76.23
2019-05-10T17:56:40.652Z,76.81
2019-05-10T17:58:33.766Z,77.76
2019-05-10T17:59:32.286Z,78.72
2019-05-10T18:01:25.206Z,79.87
2019-05-10T18:02:25.212Z,80.06
2019-05-10T18:04:18.126Z,80.63
2019-05-10T18:05:18.135Z,81.49
2019-05-10T18:07:11.546Z,81.78
2019-05-10T18:08:11.555Z,80.69
2019-05-10T18:10:04.468Z,80.88
2019-05-10T18:11:06.232Z,80.88
2019-05-10T18:13:03.172Z,80.88
2019-05-10T18:13:57.406Z,80.30
2019-05-10T18:15:50.325Z,80.88
2019-05-10T18:16:50.331Z,80.30
2019-05-10T18:18:47.057Z,80.79
2019-05-10T18:19:43.254Z,81.45
2019-05-10T18:21:36.667Z,82.70
2019-05-10T18:22:42.995Z,82.89
2019-05-10T18:24:30.287Z,83.27
2019-05-10T18:25:29.608Z,83.27
2019-05-10T18:27:22.522Z,83.17
2019-05-10T18:28:22.525Z,82.79
2019-05-10T18:30:15.440Z,82.70
2019-05-10T18:31:15.461Z,82.41
2019-05-10T18:33:12.181Z,81.55